createdAt,value
2023-05-14T00:01:19.516Z,11.90
2023-05-14T00:06:22.236Z,11.40
2023-05-14T00:11:24.937Z,11.50
2023-05-14T00:16:27.671Z,13.30
2023-05-14T00:21:31.690Z,11.30
2023-05-14T00:26:34.416Z,10.80
2023-05-14T00:31:37.981Z,11.40
2023-05-14T00:36:41.155Z,11.50
2023-05-14T00:41:43.887Z,12.00
2023-05-14T00:46:46.926Z,10.90
2023-05-14T00:51:49.897Z,8.60
2023-05-14T00:56:54.101Z,10.50
2023-05-14T01:01:57.129Z,9.30
2023-05-14T01:07:21.798Z,7.90
2023-05-14T01:12:45.928Z,9.60
2023-05-14T01:17:58.927Z,10.20
2023-05-14T01:23:02.411Z,10.70
2023-05-14T01:28:20.387Z,11.00
2023-05-14T01:33:26.133Z,9.40
2023-05-14T01:38:32.145Z,10.10
2023-05-14T01:43:35.590Z,9.20
2023-05-14T01:48:38.352Z,11.30
2023-05-14T01:53:41.440Z,9.40
2023-05-14T01:58:44.199Z,10.80
2023-05-14T02:03:46.969Z,10.40
2023-05-14T02:08:49.740Z,9.80
2023-05-14T02:13:52.541Z,12.50
2023-05-14T02:18:55.401Z,12.00
2023-05-14T02:23:58.190Z,11.60
2023-05-14T02:29:01.053Z,11.40
2023-05-14T02:34:06.522Z,9.90
2023-05-14T02:39:09.907Z,9.70
2023-05-14T02:44:13.439Z,11.50
2023-05-14T02:49:16.248Z,10.70
2023-05-14T02:54:18.959Z,11.40
2023-05-14T02:59:21.865Z,10.40
2023-05-14T03:04:25.130Z,11.00
2023-05-14T03:09:27.969Z,9.80
2023-05-14T03:14:30.830Z,9.70
2023-05-14T03:19:33.575Z,10.30
2023-05-14T03:24:39.256Z,9.50
2023-05-14T03:29:41.979Z,8.30
2023-05-14T03:34:44.993Z,8.80
2023-05-14T03:39:47.735Z,9.70
2023-05-14T03:44:51.499Z,8.00
2023-05-14T03:49:54.980Z,9.80
2023-05-14T03:54:57.794Z,9.70
2023-05-14T04:00:00.771Z,10.20
2023-05-14T04:05:04.356Z,8.80
2023-05-14T04:10:08.218Z,9.60
2023-05-14T04:15:11.751Z,7.80
2023-05-14T04:20:14.567Z,9.40
2023-05-14T04:25:18.570Z,10.40
2023-05-14T04:30:22.016Z,9.30
2023-05-14T04:35:25.287Z,9.90
2023-05-14T04:40:28.122Z,10.20
2023-05-14T04:45:34.240Z,10.60
2023-05-14T04:50:37.235Z,10.20
2023-05-14T04:55:40.731Z,8.60
2023-05-14T05:00:43.905Z,9.60
2023-05-14T05:05:46.608Z,8.30
2023-05-14T05:10:49.341Z,8.80
2023-05-14T05:15:52.072Z,8.90
2023-05-14T05:20:55.055Z,8.20
2023-05-14T05:25:57.774Z,8.10
2023-05-14T05:31:00.792Z,8.10
2023-05-14T05:36:03.781Z,8.60
2023-05-14T05:41:06.629Z,7.40
2023-05-14T05:46:09.389Z,7.30
2023-05-14T05:51:12.889Z,7.90
2023-05-14T05:56:15.886Z,6.70
2023-05-14T06:01:18.781Z,6.90
2023-05-14T06:06:22.013Z,6.60
2023-05-14T06:11:25.118Z,6.50
2023-05-14T06:16:27.994Z,6.80
2023-05-14T06:21:30.963Z,6.00
2023-05-14T06:26:33.764Z,6.10
2023-05-14T06:31:36.502Z,5.80
2023-05-14T06:36:39.224Z,5.00
2023-05-14T06:41:42.064Z,5.40
2023-05-14T06:46:44.828Z,5.00
2023-05-14T06:51:47.577Z,5.20
2023-05-14T06:56:50.486Z,4.70
2023-05-14T07:01:53.708Z,4.70
2023-05-14T07:06:56.468Z,4.70
2023-05-14T07:11:59.247Z,4.40
2023-05-14T07:17:02.031Z,3.70
2023-05-14T07:22:04.916Z,3.90
2023-05-14T07:27:08.723Z,3.40
2023-05-14T07:32:13.299Z,3.20
2023-05-14T07:37:17.546Z,2.90
2023-05-14T07:42:34.537Z,3.00
2023-05-14T07:47:39.699Z,2.90
2023-05-14T07:52:42.425Z,2.70
2023-05-14T07:57:46.171Z,2.70
2023-05-14T08:02:49.398Z,3.10
2023-05-14T08:07:52.900Z,2.50
2023-05-14T08:12:55.847Z,2.60
2023-05-14T08:18:03.393Z,2.80
2023-05-14T08:23:07.556Z,2.40
2023-05-14T08:28:10.360Z,2.70
2023-05-14T08:33:13.335Z,2.60
2023-05-14T08:38:16.068Z,2.50
2023-05-14T08:43:24.817Z,2.20
2023-05-14T08:48:32.970Z,2.40
2023-05-14T08:53:36.037Z,2.50
2023-05-14T08:58:38.858Z,2.30
2023-05-14T09:03:42.690Z,2.00
2023-05-14T09:08:46.964Z,2.10
2023-05-14T09:13:49.662Z,2.30
2023-05-14T09:18:52.476Z,2.30
2023-05-14T09:23:57.472Z,2.00
2023-05-14T09:29:02.138Z,2.20
2023-05-14T09:34:04.835Z,2.10
2023-05-14T09:39:08.015Z,2.20
2023-05-14T09:44:11.268Z,2.20
2023-05-14T09:49:14.296Z,2.10
2023-05-14T09:54:17.623Z,1.90
2023-05-14T09:59:20.909Z,2.30
2023-05-14T10:04:24.784Z,2.10
2023-05-14T10:09:30.365Z,2.00
2023-05-14T10:14:38.968Z,2.10
2023-05-14T10:19:42.053Z,1.90
2023-05-14T10:24:47.496Z,2.10
2023-05-14T10:29:54.878Z,1.90
2023-05-14T10:34:58.617Z,1.90
2023-05-14T10:40:06.359Z,1.90
2023-05-14T10:45:14.441Z,1.90
2023-05-14T10:50:17.828Z,2.10
2023-05-14T10:55:21.887Z,2.00
2023-05-14T11:00:27.966Z,2.00
2023-05-14T11:05:31.999Z,2.20
2023-05-14T11:10:35.657Z,2.00
2023-05-14T11:15:40.741Z,2.00
2023-05-14T11:20:43.582Z,2.00
2023-05-14T11:25:46.419Z,2.10
2023-05-14T11:30:50.747Z,1.90
2023-05-14T11:35:53.602Z,2.10
2023-05-14T11:40:59.294Z,2.20
2023-05-14T11:46:02.046Z,2.30
2023-05-14T11:51:04.999Z,2.20
2023-05-14T11:56:09.642Z,2.40
2023-05-14T12:01:14.013Z,2.40
2023-05-14T12:06:19.196Z,2.60
2023-05-14T12:11:21.965Z,2.90
2023-05-14T12:16:31.214Z,2.60
2023-05-14T12:21:34.851Z,2.50
2023-05-14T12:26:39.049Z,2.40
2023-05-14T12:31:49.882Z,2.40
2023-05-14T12:36:52.748Z,2.30
2023-05-14T12:41:55.528Z,2.50
2023-05-14T12:46:58.300Z,2.20
2023-05-14T12:52:17.384Z,2.20
2023-05-14T12:57:23.730Z,2.20
2023-05-14T13:02:26.536Z,2.10
2023-05-14T13:07:30.239Z,2.10
2023-05-14T13:12:33.123Z,2.10
2023-05-14T13:17:36.350Z,2.10
2023-05-14T13:22:39.461Z,2.00
2023-05-14T13:27:42.161Z,2.10
2023-05-14T13:32:45.490Z,2.10
2023-05-14T13:37:48.713Z,2.00
2023-05-14T13:42:51.449Z,2.30
2023-05-14T13:47:56.782Z,2.10
2023-05-14T13:52:59.650Z,2.10
2023-05-14T13:58:02.547Z,1.90
2023-05-14T14:03:05.815Z,2.10
2023-05-14T14:08:22.482Z,1.80
2023-05-14T14:13:27.967Z,2.00
2023-05-14T14:18:30.981Z,1.90
2023-05-14T14:23:33.774Z,1.80
2023-05-14T14:28:37.070Z,1.90
2023-05-14T14:33:39.887Z,2.00
2023-05-14T14:38:42.702Z,2.10
2023-05-14T14:43:45.497Z,1.80
2023-05-14T14:48:48.294Z,1.90
2023-05-14T14:53:51.062Z,1.90
2023-05-14T14:58:53.795Z,2.10
2023-05-14T15:03:56.529Z,1.90
2023-05-14T15:08:59.713Z,2.20
2023-05-14T15:14:02.604Z,2.10
2023-05-14T15:19:05.965Z,2.00
2023-05-14T15:24:15.504Z,1.80
2023-05-14T15:29:18.822Z,2.10
2023-05-14T15:34:21.838Z,1.90
2023-05-14T15:39:24.650Z,1.90
2023-05-14T15:44:27.374Z,1.90
2023-05-14T15:49:30.068Z,2.10
2023-05-14T15:54:32.814Z,2.10
2023-05-14T15:59:35.524Z,2.10
2023-05-14T16:04:38.309Z,2.10
2023-05-14T16:09:41.119Z,2.20
2023-05-14T16:14:45.456Z,2.10
2023-05-14T16:19:48.460Z,2.00
2023-05-14T16:24:51.240Z,2.20
2023-05-14T16:29:54.668Z,2.00
2023-05-14T16:34:57.484Z,2.40
2023-05-14T16:40:00.197Z,2.30
2023-05-14T16:45:02.937Z,2.30
2023-05-14T16:50:08.222Z,2.10
2023-05-14T16:55:11.077Z,2.20
2023-05-14T17:00:15.335Z,2.00
2023-05-14T17:05:18.480Z,2.30
2023-05-14T17:10:21.623Z,2.30
2023-05-14T17:15:24.610Z,2.30
2023-05-14T17:20:28.725Z,2.60
2023-05-14T17:25:34.186Z,2.50
2023-05-14T17:30:36.907Z,2.60
2023-05-14T17:35:40.302Z,2.50
2023-05-14T17:40:43.032Z,2.40
2023-05-14T17:45:53.884Z,3.00
2023-05-14T17:50:57.829Z,2.90
2023-05-14T17:56:00.558Z,2.90
2023-05-14T18:01:03.587Z,2.50
2023-05-14T18:06:06.608Z,2.60
2023-05-14T18:11:09.460Z,2.80
2023-05-14T18:16:12.304Z,2.70
2023-05-14T18:21:15.051Z,2.80
2023-05-14T18:26:18.170Z,2.60
2023-05-14T18:31:21.006Z,2.60
2023-05-14T18:36:23.880Z,3.80
2023-05-14T18:41:26.632Z,3.80
2023-05-14T18:46:29.599Z,3.70
2023-05-14T18:51:32.435Z,3.50
2023-05-14T18:56:36.932Z,3.80
2023-05-14T19:01:39.765Z,3.90
2023-05-14T19:06:42.940Z,4.10
2023-05-14T19:11:45.754Z,3.40
2023-05-14T19:16:48.851Z,4.30
2023-05-14T19:21:51.718Z,4.30
2023-05-14T19:26:54.628Z,3.30
2023-05-14T19:31:57.603Z,3.90
2023-05-14T19:37:00.688Z,4.10
2023-05-14T19:42:03.544Z,4.30
2023-05-14T19:47:07.143Z,4.60
2023-05-14T19:52:11.526Z,4.70
2023-05-14T19:57:14.334Z,5.00
2023-05-14T20:02:18.703Z,6.20
2023-05-14T20:07:21.573Z,5.60
2023-05-14T20:12:24.379Z,5.70
2023-05-14T20:17:27.181Z,5.50
2023-05-14T20:22:30.093Z,5.50
2023-05-14T20:27:32.941Z,5.30
2023-05-14T20:32:35.852Z,5.60
2023-05-14T20:37:39.157Z,5.10
2023-05-14T20:42:42.009Z,6.00
2023-05-14T20:47:45.861Z,5.20
2023-05-14T20:52:48.741Z,6.10
2023-05-14T20:57:51.951Z,5.90
2023-05-14T21:02:54.751Z,5.30
2023-05-14T21:07:57.656Z,4.90
2023-05-14T21:13:00.474Z,5.40
2023-05-14T21:18:03.287Z,5.70
2023-05-14T21:23:06.118Z,5.30
2023-05-14T21:28:08.870Z,5.40
2023-05-14T21:33:11.578Z,4.70
2023-05-14T21:38:15.014Z,5.10
2023-05-14T21:43:17.748Z,5.60
2023-05-14T21:48:21.750Z,5.00
2023-05-14T21:53:24.733Z,4.90
2023-05-14T21:58:28.528Z,5.00
2023-05-14T22:03:31.489Z,5.30
2023-05-14T22:08:34.256Z,5.10
2023-05-14T22:13:40.953Z,5.30
2023-05-14T22:18:44.210Z,4.90
2023-05-14T22:23:47.158Z,4.80
2023-05-14T22:28:49.972Z,4.50
2023-05-14T22:33:53.269Z,5.30
2023-05-14T22:38:56.387Z,5.00
2023-05-14T22:43:59.188Z,5.10
2023-05-14T22:49:01.864Z,5.10
2023-05-14T22:54:04.791Z,5.50
2023-05-14T22:59:07.601Z,5.30
2023-05-14T23:04:10.419Z,4.90
2023-05-14T23:09:13.295Z,5.00
2023-05-14T23:14:17.904Z,5.50
2023-05-14T23:19:21.876Z,5.00
2023-05-14T23:24:25.080Z,5.00
2023-05-14T23:29:27.983Z,5.00
2023-05-14T23:34:31.097Z,5.70
2023-05-14T23:39:34.392Z,5.70
2023-05-14T23:44:37.103Z,5.40
2023-05-14T23:49:40.864Z,5.60
2023-05-14T23:54:43.559Z,5.40
2023-05-14T23:59:46.255Z,5.30
